createdAt,value
2016-05-09T00:00:32.309Z,39.14
2016-05-09T00:01:31.906Z,38.85
2016-05-09T00:02:31.910Z,39.14
2016-05-09T00:03:32.052Z,39.12
2016-05-09T00:04:32.118Z,39.04
2016-05-09T00:05:31.839Z,39.31
2016-05-09T00:06:32.170Z,39.12
2016-05-09T00:07:32.126Z,39.14
2016-05-09T00:08:32.176Z,39.22
2016-05-09T00:09:32.053Z,39.22
2016-05-09T00:10:31.759Z,39.31
2016-05-09T00:11:31.886Z,39.22
2016-05-09T00:12:32.545Z,39.51
2016-05-09T00:13:31.845Z,39.51
2016-05-09T00:14:31.989Z,39.41
2016-05-09T00:15:32.116Z,39.61
2016-05-09T00:17:32.480Z,39.61
2016-05-09T00:18:31.686Z,39.51
2016-05-09T00:19:31.986Z,39.61
2016-05-09T00:20:31.630Z,39.61
2016-05-09T00:21:31.617Z,39.41
2016-05-09T00:22:31.978Z,39.41
2016-05-09T00:23:31.528Z,39.41
2016-05-09T00:24:32.187Z,39.22
2016-05-09T00:25:31.455Z,39.41
2016-05-09T00:26:32.035Z,39.31
2016-05-09T00:27:31.539Z,39.31
2016-05-09T00:28:32.729Z,39.89
2016-05-09T00:29:31.247Z,39.89
2016-05-09T00:30:32.204Z,39.7
2016-05-09T00:31:31.737Z,39.7
2016-05-09T00:32:31.724Z,39.7
2016-05-09T00:33:31.462Z,39.7
2016-05-09T00:34:31.323Z,39.68
2016-05-09T00:35:31.482Z,39.79
2016-05-09T00:36:31.845Z,39.78
2016-05-09T00:37:31.284Z,39.79
2016-05-09T00:38:31.225Z,40.08
2016-05-09T00:39:31.884Z,39.97
2016-05-09T00:40:31.184Z,40.06
2016-05-09T00:41:31.233Z,39.87
2016-05-09T00:42:32.220Z,40.55
2016-05-09T00:43:31.879Z,40.45
2016-05-09T00:44:31.148Z,40.16
2016-05-09T00:45:30.946Z,39.97
2016-05-09T00:46:31.106Z,40.45
2016-05-09T00:47:31.327Z,40.64
2016-05-09T00:48:31.595Z,40.45
2016-05-09T00:49:31.879Z,40.55
2016-05-09T00:50:31.008Z,40.35
2016-05-09T00:51:30.791Z,41.02
2016-05-09T00:52:31.294Z,40.25
2016-05-09T00:53:30.796Z,40.73
2016-05-09T00:54:30.768Z,40.73
2016-05-09T00:55:31.271Z,40.25
2016-05-09T00:56:30.929Z,40.35
2016-05-09T00:57:30.979Z,40.16
2016-05-09T00:58:31.075Z,40.45
2016-05-09T00:59:31.125Z,40.55
2016-05-09T01:00:30.971Z,40.45
2016-05-09T01:01:31.099Z,40.45
2016-05-09T01:02:30.836Z,40.45
2016-05-09T01:03:31.167Z,40.45
2016-05-09T01:04:31.170Z,40.45
2016-05-09T01:05:31.329Z,40.73
2016-05-09T01:06:30.753Z,40.35
2016-05-09T01:07:30.849Z,40.45
2016-05-09T01:08:30.805Z,41.22
2016-05-09T01:09:30.449Z,40.93
2016-05-09T01:10:30.671Z,41.12
2016-05-09T01:11:30.704Z,40.73
2016-05-09T01:12:31.519Z,40.83
2016-05-09T01:13:30.865Z,41.12
2016-05-09T01:14:30.555Z,40.73
2016-05-09T01:15:30.746Z,41.02
2016-05-09T01:16:30.468Z,40.81
2016-05-09T01:18:30.708Z,40.91
2016-05-09T01:19:30.803Z,41.29
2016-05-09T01:20:30.416Z,41.22
2016-05-09T01:21:30.511Z,41.22
2016-05-09T01:22:30.390Z,41.02
2016-05-09T01:23:30.752Z,41.12
2016-05-09T01:24:30.474Z,40.91
2016-05-09T01:25:30.335Z,41.41
2016-05-09T01:26:30.275Z,41.39
2016-05-09T01:27:30.263Z,41.39
2016-05-09T01:28:30.375Z,41.39
2016-05-09T01:29:30.408Z,41.2
2016-05-09T01:30:30.365Z,41.39
2016-05-09T01:31:30.429Z,41.1
2016-05-09T01:32:30.370Z,41.39
2016-05-09T01:33:30.154Z,41.1
2016-05-09T01:34:30.157Z,41.49
2016-05-09T01:35:30.737Z,41.58
2016-05-09T01:36:30.381Z,41.67
2016-05-09T01:37:30.070Z,41.67
2016-05-09T01:38:30.543Z,41.77
2016-05-09T01:39:30.015Z,41.58
2016-05-09T01:40:30.438Z,41.67
2016-05-09T01:41:30.332Z,41.58
2016-05-09T01:42:30.006Z,41.77
2016-05-09T01:43:29.945Z,41.67
2016-05-09T01:44:30.090Z,41.87
2016-05-09T01:45:29.983Z,41.77
2016-05-09T01:46:29.892Z,41.58
2016-05-09T01:47:29.864Z,41.67
2016-05-09T01:48:29.866Z,41.96
2016-05-09T01:49:30.291Z,41.77
2016-05-09T01:50:29.839Z,41.87
2016-05-09T01:51:29.781Z,41.87
2016-05-09T01:52:29.830Z,41.67
2016-05-09T01:53:29.630Z,41.67
2016-05-09T01:54:29.757Z,41.67
2016-05-09T01:55:29.728Z,42.06
2016-05-09T01:56:29.731Z,42.06
2016-05-09T01:57:29.719Z,41.96
2016-05-09T01:58:30.486Z,42.06
2016-05-09T01:59:29.974Z,42.16
2016-05-09T02:00:29.648Z,42.25
2016-05-09T02:01:29.666Z,42.16
2016-05-09T02:02:29.576Z,42.25
2016-05-09T02:03:29.375Z,42.16
2016-05-09T02:04:29.644Z,42.16
2016-05-09T02:05:29.568Z,42.44
2016-05-09T02:06:29.492Z,42.16
2016-05-09T02:07:29.635Z,42.43
2016-05-09T02:08:29.452Z,42.44
2016-05-09T02:09:29.860Z,42.43
2016-05-09T02:10:29.894Z,42.52
2016-05-09T02:11:29.428Z,42.61
2016-05-09T02:12:29.524Z,42.71
2016-05-09T02:13:29.261Z,42.61
2016-05-09T02:14:29.187Z,42.61
2016-05-09T02:15:29.345Z,42.61
2016-05-09T02:16:29.629Z,42.52
2016-05-09T02:17:30.459Z,42.71
2016-05-09T02:18:30.134Z,42.81
2016-05-09T02:19:29.277Z,42.61
2016-05-09T02:20:29.249Z,42.9
2016-05-09T02:21:29.330Z,42.81
2016-05-09T02:22:29.255Z,43
2016-05-09T02:23:29.201Z,42.9
2016-05-09T02:24:29.188Z,42.9
2016-05-09T02:25:30.081Z,43.19
2016-05-09T02:26:29.491Z,43.1
2016-05-09T02:27:29.088Z,43.1
2016-05-09T02:28:29.262Z,42.9
2016-05-09T02:29:29.311Z,43
2016-05-09T02:30:29.064Z,42.9
2016-05-09T02:31:29.020Z,43.1
2016-05-09T02:32:29.007Z,43.1
2016-05-09T02:33:29.088Z,43.1
2016-05-09T02:34:28.996Z,43.29
2016-05-09T02:35:29.249Z,43
2016-05-09T02:36:28.798Z,43.29
2016-05-09T02:37:29.254Z,43.36
2016-05-09T02:38:28.882Z,43.17
2016-05-09T02:39:28.964Z,43.27
2016-05-09T02:40:28.809Z,43.46
2016-05-09T02:41:28.844Z,43.38
2016-05-09T02:42:28.800Z,43.29
2016-05-09T02:43:28.567Z,43.48
2016-05-09T02:44:28.773Z,43.36
2016-05-09T02:45:28.573Z,43.36
2016-05-09T02:46:28.872Z,43.27
2016-05-09T02:47:29.547Z,43.27
2016-05-09T02:48:28.644Z,43.36
2016-05-09T02:49:28.725Z,43.38
2016-05-09T02:50:28.664Z,43.36
2016-05-09T02:51:28.667Z,43.36
2016-05-09T02:52:29.169Z,43.46
2016-05-09T02:53:28.844Z,43.55
2016-05-09T02:54:28.518Z,43.87
2016-05-09T02:55:28.522Z,43.67
2016-05-09T02:56:28.368Z,43.46
2016-05-09T02:57:29.246Z,43.46
2016-05-09T02:58:28.451Z,43.57
2016-05-09T02:59:28.455Z,43.55
2016-05-09T03:00:28.426Z,43.74
2016-05-09T03:01:28.616Z,43.48
2016-05-09T03:02:28.493Z,43.65
2016-05-09T03:03:28.231Z,43.57
2016-05-09T03:04:28.342Z,43.65
2016-05-09T03:05:29.329Z,43.77
2016-05-09T03:06:28.864Z,43.55
2016-05-09T03:07:28.273Z,43.55
2016-05-09T03:08:28.228Z,43.74
2016-05-09T03:09:29.420Z,43.77
2016-05-09T03:10:28.218Z,43.84
2016-05-09T03:11:28.033Z,43.74
2016-05-09T03:12:28.661Z,43.57
2016-05-09T03:13:28.367Z,43.94
2016-05-09T03:14:28.683Z,43.87
2016-05-09T03:15:28.356Z,43.74
2016-05-09T03:16:28.484Z,43.87
2016-05-09T03:17:28.175Z,43.84
2016-05-09T03:18:28.739Z,43.74
2016-05-09T03:19:28.805Z,43.74
2016-05-09T03:20:28.855Z,43.65
2016-05-09T03:21:28.014Z,43.55
2016-05-09T03:22:27.797Z,44.23
2016-05-09T03:23:28.253Z,44.32
2016-05-09T03:24:28.380Z,44.42
2016-05-09T03:25:28.430Z,44.23
2016-05-09T03:26:27.918Z,44.03
2016-05-09T03:27:28.139Z,43.74
2016-05-09T03:28:27.971Z,43.94
2016-05-09T03:29:27.941Z,44.13
2016-05-09T03:30:27.866Z,43.94
2016-05-09T03:31:27.868Z,44.03
2016-05-09T03:32:27.871Z,44.13
2016-05-09T03:33:27.748Z,43.94
2016-05-09T03:34:27.815Z,44.03
2016-05-09T03:35:27.832Z,43.74
2016-05-09T03:36:27.695Z,43.94
2016-05-09T03:37:27.915Z,43.84
2016-05-09T03:38:27.654Z,44.32
2016-05-09T03:39:27.781Z,44.42
2016-05-09T03:40:27.690Z,44.23
2016-05-09T03:41:27.583Z,44.51
2016-05-09T03:42:27.539Z,44.42
2016-05-09T03:43:27.525Z,44.42
2016-05-09T03:44:27.639Z,44.61
2016-05-09T03:45:27.516Z,44.23
2016-05-09T03:46:27.550Z,44.32
2016-05-09T03:47:27.474Z,44.42
2016-05-09T03:48:27.477Z,44.32
2016-05-09T03:49:33.933Z,44.32
2016-05-09T03:50:30.825Z,44.42
2016-05-09T03:51:30.203Z,44.61
2016-05-09T03:52:27.503Z,44.7
2016-05-09T03:53:27.333Z,44.8
2016-05-09T03:54:27.368Z,44.7
2016-05-09T03:55:27.355Z,44.61
2016-05-09T03:56:27.327Z,44.51
2016-05-09T03:57:27.391Z,44.51
2016-05-09T03:58:27.238Z,44.32
2016-05-09T03:59:27.349Z,44.51
2016-05-09T04:00:27.244Z,44.51
2016-05-09T04:01:27.184Z,44.61
2016-05-09T04:02:27.171Z,44.32
2016-05-09T04:03:27.173Z,44.32
2016-05-09T04:04:27.129Z,44.32
2016-05-09T04:05:27.100Z,44.32
2016-05-09T04:06:27.057Z,44.9
2016-05-09T04:07:27.075Z,44.9
2016-05-09T04:08:27.046Z,44.7
2016-05-09T04:09:27.001Z,44.8
2016-05-09T04:10:26.848Z,44.51
2016-05-09T04:11:27.006Z,44.61
2016-05-09T04:12:27.104Z,44.8
2016-05-09T04:13:26.951Z,44.8
2016-05-09T04:14:26.906Z,44.51
2016-05-09T04:15:26.877Z,44.51
2016-05-09T04:16:26.864Z,44.42
2016-05-09T04:17:26.883Z,44.42
2016-05-09T04:18:26.855Z,44.8
2016-05-09T04:19:26.842Z,45.09
2016-05-09T04:20:26.797Z,45
2016-05-09T04:21:26.783Z,45.09
2016-05-09T04:22:26.802Z,44.7
2016-05-09T04:23:26.727Z,44.51
2016-05-09T04:24:26.699Z,45.18
2016-05-09T04:25:26.702Z,45.18
2016-05-09T04:26:26.657Z,45.18
2016-05-09T04:27:26.769Z,45.09
2016-05-09T04:28:26.663Z,45.09
2016-05-09T04:29:26.618Z,45.18
2016-05-09T04:30:26.683Z,45.26
2016-05-09T04:31:26.546Z,45.09
2016-05-09T04:32:26.548Z,45.28
2016-05-09T04:33:26.520Z,45.28
2016-05-09T04:34:26.538Z,45.18
2016-05-09T04:35:26.650Z,45.07
2016-05-09T04:36:26.449Z,45.09
2016-05-09T04:37:26.484Z,45.18
2016-05-09T04:38:26.440Z,45.18
2016-05-09T04:39:26.395Z,45.28
2016-05-09T04:40:26.226Z,45.18
2016-05-09T04:41:26.353Z,45.18
2016-05-09T04:42:26.356Z,45.28
2016-05-09T04:43:26.359Z,45.18
2016-05-09T04:44:26.518Z,45.28
2016-05-09T04:45:26.287Z,45.18
2016-05-09T04:46:26.305Z,45.09
2016-05-09T04:47:26.213Z,45.18
2016-05-09T04:48:26.278Z,45.18
2016-05-09T04:49:26.079Z,45.18
2016-05-09T04:50:26.190Z,45.09
2016-05-09T04:51:26.397Z,45.09
2016-05-09T04:52:26.180Z,45.09
2016-05-09T04:53:26.105Z,45.18
2016-05-09T04:54:25.919Z,45.28
2016-05-09T04:55:26.095Z,45.28
2016-05-09T04:56:26.082Z,45.18
2016-05-09T04:57:26.006Z,45.18
2016-05-09T04:58:26.024Z,45.28
2016-05-09T04:59:25.996Z,45.09
2016-05-09T05:00:26.013Z,45.18
2016-05-09T05:01:25.986Z,45.28
2016-05-09T05:02:25.926Z,45.18
2016-05-09T05:03:25.913Z,44.9
2016-05-09T05:04:25.993Z,45.18
2016-05-09T05:05:25.871Z,45.09
2016-05-09T05:06:25.921Z,44.9
2016-05-09T05:07:25.846Z,45.3
2016-05-09T05:08:25.801Z,45.28
2016-05-09T05:09:25.820Z,45.11
2016-05-09T05:10:25.776Z,45.11
2016-05-09T05:11:25.793Z,45.21
2016-05-09T05:12:25.718Z,45.09
2016-05-09T05:13:25.706Z,45.11
2016-05-09T05:14:25.708Z,44.82
2016-05-09T05:15:25.664Z,45.11
2016-05-09T05:16:25.635Z,45.11
2016-05-09T05:17:25.748Z,45.01
2016-05-09T05:18:25.609Z,44.92
2016-05-09T05:19:25.597Z,45.3
2016-05-09T05:20:25.552Z,44.92
2016-05-09T05:21:25.586Z,45.11
2016-05-09T05:22:25.510Z,45.3
2016-05-09T05:23:25.342Z,45.4
2016-05-09T05:24:25.517Z,45.11
2016-05-09T05:25:25.488Z,45.3
2016-05-09T05:26:25.271Z,45.11
2016-05-09T05:27:25.415Z,45.11
2016-05-09T05:28:25.418Z,45.4
2016-05-09T05:29:25.577Z,45.11
2016-05-09T05:30:25.408Z,45.11
2016-05-09T05:31:25.379Z,45.3
2016-05-09T05:32:25.146Z,45.4
2016-05-09T05:33:25.290Z,45.4
2016-05-09T05:34:25.121Z,45.4
2016-05-09T05:35:25.296Z,45.5
2016-05-09T05:36:25.330Z,45.59
2016-05-09T05:37:25.254Z,45.5
2016-05-09T05:38:25.210Z,45.59
2016-05-09T05:39:25.212Z,45.5
2016-05-09T05:40:25.215Z,45.5
2016-05-09T05:41:25.171Z,45.59
2016-05-09T05:42:25.112Z,45.5
2016-05-09T05:43:25.114Z,45.5
2016-05-09T05:44:25.351Z,45.59
2016-05-09T05:45:24.901Z,45.59
2016-05-09T05:46:25.154Z,45.59
2016-05-09T05:47:25.015Z,45.5
2016-05-09T05:48:25.003Z,45.42
2016-05-09T05:49:25.005Z,45.52
2016-05-09T05:50:24.961Z,45.52
2016-05-09T05:51:24.947Z,45.52
2016-05-09T05:52:24.903Z,45.61
2016-05-09T05:53:24.923Z,45.52
2016-05-09T05:54:24.909Z,45.61
2016-05-09T05:55:24.741Z,45.61
2016-05-09T05:56:24.836Z,45.61
2016-05-09T05:57:24.808Z,45.61
2016-05-09T05:58:38.560Z,45.52
2016-05-09T05:59:25.063Z,45.52
2016-05-09T06:00:24.797Z,45.61
2016-05-09T06:01:24.828Z,45.52
2016-05-09T06:02:24.952Z,45.61
2016-05-09T06:03:24.858Z,45.42
2016-05-09T06:04:24.952Z,45.52
2016-05-09T06:05:24.877Z,45.64
2016-05-09T06:06:24.896Z,45.64
2016-05-09T06:07:24.881Z,45.64
2016-05-09T06:08:24.869Z,45.54
2016-05-09T06:09:24.716Z,45.64
2016-05-09T06:10:24.865Z,45.54
2016-05-09T06:11:24.670Z,45.64
2016-05-09T06:12:24.851Z,45.64
2016-05-09T06:13:24.813Z,45.64
2016-05-09T06:14:25.013Z,45.64
2016-05-09T06:15:24.784Z,45.54
2016-05-09T06:16:24.819Z,45.64
2016-05-09T06:17:24.777Z,45.54
2016-05-09T06:18:24.751Z,45.54
2016-05-09T06:19:24.645Z,45.54
2016-05-09T06:20:24.695Z,45.64
2016-05-09T06:21:25.168Z,45.54
2016-05-09T06:22:24.546Z,45.54
2016-05-09T06:23:24.783Z,45.66
2016-05-09T06:24:24.631Z,45.56
2016-05-09T06:25:24.650Z,45.64
2016-05-09T06:26:24.872Z,45.56
2016-05-09T06:27:24.546Z,45.66
2016-05-09T06:28:24.548Z,45.56
2016-05-09T06:29:24.676Z,45.56
2016-05-09T06:30:24.679Z,45.56
2016-05-09T06:31:24.478Z,45.66
2016-05-09T06:32:24.746Z,45.56
2016-05-09T06:33:24.421Z,45.56
2016-05-09T06:34:24.924Z,45.66
2016-05-09T06:35:24.614Z,45.56
2016-05-09T06:36:24.352Z,45.66
2016-05-09T06:37:24.416Z,45.56
2016-05-09T06:38:24.372Z,45.66
2016-05-09T06:39:24.328Z,45.56
2016-05-09T06:40:24.284Z,45.56
2016-05-09T06:41:25.505Z,45.56
2016-05-09T06:42:24.649Z,45.56
2016-05-09T06:43:24.323Z,45.66
2016-05-09T06:44:24.233Z,45.59
2016-05-09T06:45:24.063Z,45.59
2016-05-09T06:46:24.207Z,45.59
2016-05-09T06:47:24.303Z,45.68
2016-05-09T06:48:24.243Z,45.68
2016-05-09T06:49:24.809Z,45.68
2016-05-09T06:50:24.404Z,45.59
2016-05-09T06:51:24.532Z,45.68
2016-05-09T06:52:24.316Z,45.68
2016-05-09T06:53:37.834Z,45.59
2016-05-09T06:54:24.728Z,45.68
2016-05-09T06:55:24.684Z,45.68
2016-05-09T06:56:24.218Z,45.59
2016-05-09T06:57:25.033Z,45.59
2016-05-09T06:58:24.458Z,45.59
2016-05-09T06:59:25.367Z,45.59
2016-05-09T07:00:24.338Z,45.59
2016-05-09T07:01:24.325Z,45.59
2016-05-09T07:02:24.061Z,45.7
2016-05-09T07:03:24.314Z,45.68
2016-05-09T07:04:24.458Z,45.7
2016-05-09T07:05:25.304Z,45.61
2016-05-09T07:06:24.276Z,45.7
2016-05-09T07:07:24.638Z,45.7
2016-05-09T07:08:24.391Z,45.61
2016-05-09T07:09:24.362Z,45.7
2016-05-09T07:10:37.490Z,45.7
2016-05-09T07:11:23.977Z,45.7
2016-05-09T07:12:37.464Z,45.61
2016-05-09T07:13:24.061Z,45.51
2016-05-09T07:14:37.438Z,45.51
2016-05-09T07:15:24.504Z,45.42
2016-05-09T07:16:24.381Z,45.51
2016-05-09T07:17:24.946Z,45.51
2016-05-09T07:18:25.402Z,45.51
2016-05-09T07:19:26.029Z,45.42
2016-05-09T07:20:24.845Z,45.44
2016-05-09T07:21:24.629Z,45.42
2016-05-09T07:22:24.990Z,45.53
2016-05-09T07:23:25.243Z,45.53
2016-05-09T07:24:24.212Z,45.53
2016-05-09T07:25:37.218Z,45.53
2016-05-09T07:26:25.062Z,45.53
2016-05-09T07:27:25.126Z,45.73
2016-05-09T07:28:24.911Z,45.63
2016-05-09T07:29:23.929Z,45.53
2016-05-09T07:30:26.559Z,45.53
2016-05-09T07:31:24.669Z,45.53
2016-05-09T07:32:24.655Z,45.63
2016-05-09T07:33:24.018Z,45.63
2016-05-09T07:34:26.458Z,45.73
2016-05-09T07:35:24.351Z,45.63
2016-05-09T07:36:25.120Z,45.65
2016-05-09T07:37:24.778Z,45.75
2016-05-09T07:38:24.094Z,45.65
2016-05-09T07:39:26.206Z,45.65
2016-05-09T07:40:24.521Z,45.65
2016-05-09T07:41:24.461Z,45.65
2016-05-09T07:43:25.216Z,45.75
2016-05-09T07:44:23.969Z,45.65
2016-05-09T07:45:24.207Z,45.65
2016-05-09T07:46:23.677Z,45.75
2016-05-09T07:47:23.180Z,45.65
2016-05-09T07:48:23.527Z,45.75
2016-05-09T07:49:24.467Z,45.75
2016-05-09T07:50:23.158Z,45.56
2016-05-09T07:51:22.962Z,45.65
2016-05-09T07:52:23.293Z,45.65
2016-05-09T07:53:23.405Z,45.56
2016-05-09T07:54:23.407Z,45.27
2016-05-09T07:55:23.122Z,45.68
2016-05-09T07:56:23.250Z,45.58
2016-05-09T07:57:22.988Z,45.48
2016-05-09T07:58:23.318Z,45.39
2016-05-09T07:59:24.056Z,45.39
2016-05-09T08:00:23.261Z,45.2
2016-05-09T08:01:23.295Z,45.2
2016-05-09T08:02:23.391Z,45.48
2016-05-09T08:03:23.472Z,45.48
2016-05-09T08:04:22.896Z,45.29
2016-05-09T08:05:24.165Z,45.29
2016-05-09T08:06:26.621Z,45.1
2016-05-09T08:07:23.873Z,45.29
2016-05-09T08:08:30.423Z,45.2
2016-05-09T08:09:24.363Z,45.39
2016-05-09T08:10:26.585Z,45.39
2016-05-09T08:11:26.573Z,45.39
2016-05-09T08:12:24.418Z,45.31
2016-05-09T08:13:23.234Z,45.41
2016-05-09T08:14:23.830Z,45.41
2016-05-09T08:15:23.223Z,45.21
2016-05-09T08:16:23.242Z,45.21
2016-05-09T08:17:23.307Z,45.41
2016-05-09T08:18:22.763Z,45.21
2016-05-09T08:19:23.203Z,45.41
2016-05-09T08:20:23.267Z,45.41
2016-05-09T08:21:23.350Z,45.03
2016-05-09T08:22:24.023Z,45.31
2016-05-09T08:23:22.166Z,45.12
2016-05-09T08:24:23.076Z,44.83
2016-05-09T08:25:22.642Z,45.24
2016-05-09T08:26:22.691Z,45.03
2016-05-09T08:27:23.131Z,45.34
2016-05-09T08:28:23.055Z,44.93
2016-05-09T08:29:24.386Z,45.34
2016-05-09T08:30:22.655Z,45.43
2016-05-09T08:31:26.469Z,45.34
2016-05-09T08:32:22.035Z,44.85
2016-05-09T08:33:22.178Z,44.76
2016-05-09T08:34:22.180Z,44.76
2016-05-09T08:35:21.933Z,45.04
2016-05-09T08:36:22.140Z,45.04
2016-05-09T08:37:22.455Z,44.46
2016-05-09T08:38:21.895Z,44.56
2016-05-09T08:39:22.053Z,44.85
2016-05-09T08:40:22.884Z,44.85
2016-05-09T08:41:22.450Z,44.85
2016-05-09T08:42:21.812Z,44.56
2016-05-09T08:43:21.987Z,44.87
2016-05-09T08:44:22.036Z,44.85
2016-05-09T08:45:21.976Z,44.85
2016-05-09T08:46:21.932Z,44.85
2016-05-09T08:47:21.965Z,45.17
2016-05-09T08:48:21.906Z,44.87
2016-05-09T08:49:22.175Z,44.39
2016-05-09T08:50:21.973Z,44.59
2016-05-09T08:51:22.070Z,44.59
2016-05-09T08:52:22.073Z,44.59
2016-05-09T08:53:22.076Z,44.49
2016-05-09T08:54:22.328Z,44.68
2016-05-09T08:56:22.194Z,44.68
2016-05-09T08:57:21.711Z,44.68
2016-05-09T08:58:21.745Z,44.59
2016-05-09T08:59:21.811Z,44.68
2016-05-09T09:00:21.688Z,44.68
2016-05-09T09:01:22.488Z,44.68
2016-05-09T09:02:23.444Z,44.87
2016-05-09T09:03:22.415Z,44.49
2016-05-09T09:04:22.136Z,44.68
2016-05-09T09:05:22.718Z,44.49
2016-05-09T09:06:22.548Z,44.2
2016-05-09T09:07:23.785Z,44.29
2016-05-09T09:08:30.928Z,44.2
2016-05-09T09:09:22.369Z,44.2
2016-05-09T09:10:21.574Z,44.29
2016-05-09T09:11:21.373Z,44.29
2016-05-09T09:12:22.142Z,44.1
2016-05-09T09:13:21.661Z,44.1
2016-05-09T09:14:21.898Z,44.29
2016-05-09T09:15:21.370Z,44.2
2016-05-09T09:16:21.607Z,44.22
2016-05-09T09:17:21.468Z,44.51
2016-05-09T09:18:21.424Z,44.32
2016-05-09T09:19:21.927Z,44.03
2016-05-09T09:20:21.539Z,44.42
2016-05-09T09:21:21.651Z,44.32
2016-05-09T09:22:21.153Z,44.03
2016-05-09T09:23:21.453Z,43.84
2016-05-09T09:24:21.237Z,43.84
2016-05-09T09:25:21.225Z,44.32
2016-05-09T09:26:21.383Z,44.12
2016-05-09T09:27:22.464Z,44.03
2016-05-09T09:28:22.639Z,44.22
2016-05-09T09:29:21.188Z,44.03
2016-05-09T09:30:22.566Z,43.93
2016-05-09T09:31:22.193Z,43.93
2016-05-09T09:32:21.494Z,44.03
2016-05-09T09:33:24.714Z,44.03
2016-05-09T09:35:21.517Z,44.22
2016-05-09T09:36:21.004Z,44.22
2016-05-09T09:37:21.132Z,44.03
2016-05-09T09:38:21.275Z,43.85
2016-05-09T09:39:21.512Z,44.05
2016-05-09T09:40:21.390Z,43.95
2016-05-09T09:41:21.752Z,43.85
2016-05-09T09:42:21.020Z,44.05
2016-05-09T09:43:21.038Z,43.95
2016-05-09T09:44:21.306Z,43.95
2016-05-09T09:46:20.656Z,43.66
2016-05-09T09:47:20.876Z,43.57
2016-05-09T09:48:20.834Z,43.66
2016-05-09T09:49:21.351Z,43.66
2016-05-09T09:50:21.135Z,43.66
2016-05-09T09:51:20.841Z,43.66
2016-05-09T09:53:20.909Z,43.76
2016-05-09T09:54:34.896Z,43.57
2016-05-09T09:55:21.478Z,43.47
2016-05-09T09:56:21.308Z,43.47
2016-05-09T09:57:20.733Z,43.76
2016-05-09T09:58:21.000Z,43.57
2016-05-09T09:59:20.800Z,43.57
2016-05-09T10:00:20.880Z,43.47
2016-05-09T10:01:34.368Z,43.57
2016-05-09T10:02:20.700Z,43.76
2016-05-09T10:03:20.577Z,43.47
2016-05-09T10:04:20.658Z,43.57
2016-05-09T10:05:20.645Z,43.49
2016-05-09T10:06:22.819Z,43.4
2016-05-09T10:07:20.743Z,43.4
2016-05-09T10:08:20.465Z,43.2
2016-05-09T10:09:20.983Z,43.4
2016-05-09T10:10:20.454Z,43.4
2016-05-09T10:11:21.566Z,43.2
2016-05-09T10:12:20.429Z,43.2
2016-05-09T10:13:23.979Z,43.1
2016-05-09T10:14:20.591Z,43.01
2016-05-09T10:15:20.374Z,42.91
2016-05-09T10:16:25.268Z,43.01
2016-05-09T10:17:21.474Z,42.91
2016-05-09T10:18:21.179Z,42.91
2016-05-09T10:19:20.635Z,42.91
2016-05-09T10:20:20.326Z,43.01
2016-05-09T10:21:21.578Z,42.62
2016-05-09T10:22:20.753Z,42.82
2016-05-09T10:23:20.365Z,42.72
2016-05-09T10:24:20.367Z,42.62
2016-05-09T10:25:20.870Z,42.72
2016-05-09T10:26:20.248Z,42.52
2016-05-09T10:27:20.234Z,42.55
2016-05-09T10:28:20.206Z,42.43
2016-05-09T10:29:33.959Z,42.55
2016-05-09T10:31:20.042Z,42.45
2016-05-09T10:32:20.561Z,42.33
2016-05-09T10:33:20.250Z,42.25
2016-05-09T10:34:24.161Z,41.97
2016-05-09T10:35:20.038Z,42.16
2016-05-09T10:36:21.134Z,42.04
2016-05-09T10:37:20.293Z,41.87
2016-05-09T10:38:19.999Z,42.07
2016-05-09T10:39:20.173Z,41.97
2016-05-09T10:40:20.051Z,41.77
2016-05-09T10:41:20.429Z,41.97
2016-05-09T10:42:19.932Z,42.07
2016-05-09T10:43:20.122Z,41.85
2016-05-09T10:44:20.421Z,41.94
2016-05-09T10:45:19.924Z,41.87
2016-05-09T10:46:19.910Z,41.67
2016-05-09T10:47:20.413Z,41.67
2016-05-09T10:48:19.885Z,41.67
2016-05-09T10:49:19.810Z,41.77
2016-05-09T10:50:20.218Z,41.58
2016-05-09T10:51:19.909Z,41.58
2016-05-09T10:52:22.973Z,41.39
2016-05-09T10:54:23.276Z,41.19
2016-05-09T10:55:23.404Z,41.29
2016-05-09T10:56:19.626Z,41.09
2016-05-09T10:57:19.628Z,40.71
2016-05-09T10:58:20.193Z,40.81
2016-05-09T10:59:20.305Z,41
2016-05-09T11:00:20.089Z,40.81
2016-05-09T11:01:19.686Z,40.71
2016-05-09T11:02:19.532Z,40.81
2016-05-09T11:03:19.566Z,40.71
2016-05-09T11:04:19.709Z,40.81
2016-05-09T11:05:23.571Z,40.9
2016-05-09T11:06:19.902Z,40.9
2016-05-09T11:07:19.436Z,41
2016-05-09T11:08:19.517Z,40.9
2016-05-09T11:09:19.691Z,40.92
2016-05-09T11:10:19.694Z,41
2016-05-09T11:11:19.431Z,40.9
2016-05-09T11:12:19.809Z,40.53
2016-05-09T11:13:20.281Z,40.32
2016-05-09T11:14:19.815Z,40.71
2016-05-09T11:15:23.771Z,40.61
2016-05-09T11:16:19.445Z,40.52
2016-05-09T11:17:19.447Z,41.09
2016-05-09T11:18:19.825Z,41.02
2016-05-09T11:19:19.249Z,41.31
2016-05-09T11:20:19.674Z,40.53
2016-05-09T11:21:19.786Z,40.73
2016-05-09T11:22:19.523Z,40.92
2016-05-09T11:23:18.995Z,40.83
2016-05-09T11:24:23.482Z,40.53
2016-05-09T11:25:19.470Z,40.34
2016-05-09T11:26:19.659Z,40.34
2016-05-09T11:27:19.146Z,40.05
2016-05-09T11:28:19.134Z,40.05
2016-05-09T11:29:19.261Z,39.76
2016-05-09T11:30:19.528Z,40.15
2016-05-09T11:31:23.626Z,39.67
2016-05-09T11:32:19.113Z,39.76
2016-05-09T11:33:32.819Z,39.76
2016-05-09T11:34:32.758Z,39.86
2016-05-09T11:35:19.246Z,39.76
2016-05-09T11:36:18.858Z,39.86
2016-05-09T11:37:19.080Z,39.86
2016-05-09T11:38:19.114Z,39.37
2016-05-09T11:39:19.413Z,39.49
2016-05-09T11:40:19.853Z,39.49
2016-05-09T11:41:18.981Z,39.11
2016-05-09T11:42:19.030Z,38.91
2016-05-09T11:43:23.080Z,38.53
2016-05-09T11:44:20.005Z,38.81
2016-05-09T11:45:18.882Z,38.81
2016-05-09T11:46:19.088Z,38.81
2016-05-09T11:47:18.762Z,38.53
2016-05-09T11:48:19.266Z,38.62
2016-05-09T11:49:18.752Z,38.53
2016-05-09T11:50:32.473Z,38.33
2016-05-09T11:51:18.867Z,37.96
2016-05-09T11:52:23.854Z,37.87
2016-05-09T11:53:18.763Z,37.87
2016-05-09T12:00:42.156Z,36.83
2016-05-09T12:01:28.300Z,37.11
2016-05-09T12:02:28.756Z,36.74
2016-05-09T12:03:41.806Z,35.86
2016-05-09T12:04:42.403Z,33.29
2016-05-09T12:05:41.748Z,28.3
2016-05-09T12:06:28.422Z,26.93
2016-05-09T12:07:28.003Z,26.27
2016-05-09T12:08:28.148Z,26.28
2016-05-09T12:09:27.978Z,28.15
2016-05-09T12:10:27.980Z,29.17
2016-05-09T12:11:27.905Z,30.51
2016-05-09T12:12:27.954Z,31.07
2016-05-09T12:13:27.911Z,32.03
2016-05-09T12:14:27.835Z,32.21
2016-05-09T12:15:27.885Z,32.4
2016-05-09T12:16:27.949Z,32.39
2016-05-09T12:17:27.655Z,33.46
2016-05-09T12:18:27.893Z,33.64
2016-05-09T12:19:27.771Z,33.93
2016-05-09T12:20:27.882Z,34.03
2016-05-09T12:21:27.745Z,34.12
2016-05-09T12:22:27.716Z,33.54
2016-05-09T12:23:27.688Z,33.34
2016-05-09T12:24:27.737Z,33.93
2016-05-09T12:25:27.676Z,33.07
2016-05-09T12:26:28.117Z,31.43
2016-05-09T12:27:27.682Z,29.33
2016-05-09T12:28:27.654Z,28.3
2016-05-09T12:29:28.579Z,28.52
2016-05-09T12:30:27.597Z,27.73
2016-05-09T12:31:27.740Z,24.54
2016-05-09T12:32:27.681Z,22.46
2016-05-09T12:33:27.512Z,20.65
2016-05-09T12:34:27.608Z,19.8
2016-05-09T12:35:27.564Z,18.06
2016-05-09T12:36:27.675Z,18.99
2016-05-09T12:37:27.959Z,17.68
2016-05-09T12:38:27.478Z,19.38
2016-05-09T12:39:27.511Z,22.08
2016-05-09T12:40:27.452Z,22.34
2016-05-09T12:41:27.549Z,24.97
2016-05-09T12:42:27.302Z,25.42
2016-05-09T12:43:27.835Z,26.86
2016-05-09T12:44:28.477Z,27.9
2016-05-09T12:45:27.466Z,27.77
2016-05-09T12:46:27.422Z,28.93
2016-05-09T12:47:27.471Z,29.11
2016-05-09T12:48:27.661Z,30.18
2016-05-09T12:49:27.335Z,29.88
2016-05-09T12:50:27.324Z,30.06
2016-05-09T12:51:27.482Z,30.05
2016-05-09T12:52:27.344Z,29.95
2016-05-09T12:53:27.331Z,30.22
2016-05-09T12:54:27.301Z,29.93
2016-05-09T12:55:27.258Z,30.03
2016-05-09T12:56:27.261Z,30.22
2016-05-09T12:57:27.295Z,30.11
2016-05-09T13:07:50.872Z,31.41
2016-05-09T13:08:38.184Z,31.81
2016-05-09T13:09:36.545Z,31.51
2016-05-09T13:10:37.173Z,31.81
2016-05-09T13:11:36.566Z,31.51
2016-05-09T13:12:36.491Z,31.71
2016-05-09T13:13:36.478Z,31.61
2016-05-09T13:14:36.731Z,31.5
2016-05-09T13:15:36.531Z,30.83
2016-05-09T13:16:36.424Z,30.44
2016-05-09T13:17:36.442Z,28.53
2016-05-09T13:18:36.398Z,28.07
2016-05-09T13:19:36.402Z,27.12
2016-05-09T13:23:03.052Z,25.32